• Join FlightAware (Why Join?)
  • Login
  • US Flag 
01:29PM EST


 

Airport Tracker/Info


-or-


 

Live Flight TrackerFlight Track Log ✈ AAL1805 ✈ 26-Apr-2013 ✈ KDCA - KMIA

Flight Track Log - Related Links

Times and Time Zones

All times are in EDT time to prevent confusion due to time zone crossing. See the AAL1805 flight status page for this flight to view local times or setup timezone preferences in your user account.

Time Position Orientation Groundspeed Altitude Reporting Facility
EDT Latitude Longitude Course Direction KTS MPH feet Rate Location/Type
04:13PM 38.8833 -77.0667 169° South 164 189 1,700  Level Potomac TRACON
04:14PM 38.6732 -76.8566 142° Southeast  Level FlightAware Approximate
04:14PM 38.9333 -77.1167 322° Northwest 242 278 4,500  Level Potomac TRACON
04:15PM 38.5903 -76.7570 142° Southeast  Level FlightAware Approximate
04:15PM 38.9833 -77.1667 322° Northwest 244 281 8,200  Level Potomac TRACON
04:16PM 38.4877 -76.7075 171° South  Level FlightAware Approximate
04:16PM 39.0333 -77.1167 38° Northeast 290 334 10,900  Level Potomac TRACON
04:17PM 38.3742 -76.7000 180° South  Level FlightAware Approximate
04:17PM 39.0000 -76.9833 108° East 379 436 12,200  Level Potomac TRACON
04:18PM 38.2735 -76.6809 169° South  Level FlightAware Approximate
04:18PM 38.9167 -76.9167 148° Southeast 394 453 15,100  Level Potomac TRACON
04:19PM 38.8167 -76.8667 159° South 428 493 17,600 2,100 Climbing Potomac TRACON
04:19PM 38.7444 -76.8319 159° South 424 488 18,600 840 Climbing Washington Center
04:20PM 38.6386 -76.7744 157° South 430 495 19,000 240 Climbing Washington Center
04:21PM 38.5328 -76.7250 160° South 420 483 19,200 1,140 Climbing Washington Center
04:22PM 38.4203 -76.7100 174° South 408 470 21,300 1,860 Climbing Washington Center
04:23PM 38.3017 -76.6950 174° South 415 478 23,000 1,560 Climbing Washington Center
04:24PM 38.1914 -76.6750 172° South 427 491 24,500 1,380 Climbing Washington Center
04:25PM 38.0642 -76.6597 175° South 446 513 25,800 1,260 Climbing Washington Center
04:26PM 37.9308 -76.6397 173° South 467 537 27,100 1,260 Climbing Washington Center
04:27PM 37.7914 -76.6219 174° South 492 566 28,400 1,260 Climbing Washington Center
04:28PM 37.6475 -76.6042 174° South 508 585 29,700 4,800 Climbing Washington Center
04:29PM 37.5058 -76.5919 176° South 520 598 38,000 1,200 Climbing Washington Center
04:30PM 37.3700 -76.6214 190° South 505 581 32,100 -2,160 Descending Washington Center
04:31PM 37.2278 -76.6692 195° South 500 575 33,800 1,560 Climbing Washington Center
04:32PM 37.0981 -76.7142 195° South 484 557 35,300 1,080 Climbing Washington Center
04:33PM 36.9703 -76.7564 195° South 484 557 36,000 300 Climbing Washington Center
04:34PM 36.8469 -76.7989 195° South 473 544 36,000  Level Washington Center
04:35PM 36.7233 -76.8383 194° South 467 537 36,000  Level Washington Center
04:36PM 36.6039 -76.8778 195° South 462 532 36,000 240 Level Washington Center
04:37PM 36.4783 -76.9197 195° South 457 526 36,500 720 Climbing Washington Center
04:38PM 36.3653 -76.9564 195° South 457 526 37,500 660 Climbing Washington Center
04:39PM 36.2417 -76.9981 195° South 462 532 37,900 180 Climbing Washington Center
04:40PM 36.1181 -77.0344 193° South 457 526 37,900  Level Washington Center
04:41PM 35.9967 -77.0758 195° South 457 526 38,000  Climbing Washington Center
04:42PM 35.8731 -77.1147 194° South 457 526 38,000  Level Washington Center
04:43PM 35.7536 -77.1533 195° South 451 519 38,000  Level Washington Center
04:44PM 35.6281 -77.1917 194° South 456 525 38,000  Level Washington Center
04:45PM 35.5042 -77.2325 195° South 456 525 38,000  Level Washington Center
04:46PM 35.3806 -77.2733 195° South 456 525 38,000  Level Washington Center
04:47PM 35.2550 -77.3114 194° South 456 525 38,000  Level Washington Center
04:48PM 35.1333 -77.3519 195° South 456 525 38,000  Level Washington Center
04:49PM 35.0097 -77.3875 193° South 456 525 38,000  Level Washington Center
04:50PM 34.8839 -77.4253 194° South 456 525 38,000 -60 Level Washington Center
04:51PM 34.7494 -77.4778 198° South 461 531 37,900  Descending Washington Center
04:52PM 34.6217 -77.5128 193° South 461 531 38,000  Climbing Washington Center
04:53PM 34.4981 -77.5500 194° South 456 525 37,900 -60 Descending Washington Center
04:54PM 34.3742 -77.5900 195° South 456 525 37,900  Level Washington Center
04:55PM 34.2506 -77.6272 194° South 456 525 37,900  Level Washington Center
04:57PM 34.0442 -77.6875 194° South 452 520 38,000  Climbing Jacksonville Center
04:58PM 33.9225 -77.7247 194° South 447 514 38,000  Level Jacksonville Center
04:59PM 33.8050 -77.7592 194° South 447 514 38,000  Level Jacksonville Center
05:00PM 33.6875 -77.7958 195° South 447 514 38,000 -60 Level Jacksonville Center
05:01PM 33.5700 -77.8325 195° South 447 514 37,900 -60 Descending Jacksonville Center
05:02PM 33.4525 -77.8692 195° South 447 514 37,900  Level Jacksonville Center
05:03PM 33.3394 -77.9053 195° South 442 509 37,900  Level Jacksonville Center
05:04PM 33.2194 -77.9369 192° South 442 509 37,900  Level Jacksonville Center
05:05PM 33.1039 -77.9706 194° South 437 503 37,900  Level Jacksonville Center
05:06PM 32.9864 -78.0067 194° South 432 497 37,900  Level Jacksonville Center
05:07PM 32.8667 -78.0431 194° South 432 497 37,900  Level Jacksonville Center
05:08PM 32.7492 -78.0764 193° South 432 497 38,000  Climbing Jacksonville Center
05:09PM 32.6317 -78.1172 196° South 437 503 37,900  Descending Jacksonville Center
05:10PM 32.5117 -78.1481 192° South 437 503 38,000  Climbing Jacksonville Center
05:11PM 32.3942 -78.1814 193° South 442 509 37,900 -60 Descending Jacksonville Center
05:12PM 32.2744 -78.2169 194° South 442 509 37,900  Level Jacksonville Center
05:13PM 32.1467 -78.2603 196° South 447 514 37,900  Level Jacksonville Center
05:14PM 32.0247 -78.2983 195° South 452 520 37,900  Level Jacksonville Center
05:15PM 31.9092 -78.3311 194° South 452 520 37,900  Level Jacksonville Center
05:16PM 31.7850 -78.3664 194° South 452 520 37,900  Level Jacksonville Center
05:17PM 31.6633 -78.4042 195° South 452 520 37,900  Level Jacksonville Center
05:18PM 31.5475 -78.4367 193° South 445 512 37,900  Level Jacksonville Center
05:19PM 31.4236 -78.4717 194° South 451 519 37,900  Level Jacksonville Center
05:20PM 31.2994 -78.5092 194° South 450 518 37,900  Level Jacksonville Center
05:21PM 31.1839 -78.5411 193° South 448 516 37,900  Level Jacksonville Center
05:22PM 31.0617 -78.5761 194° South 449 517 37,900  Level Jacksonville Center
05:23PM 30.9522 -78.6053 193° South 449 517 37,900  Level Jacksonville Center
05:24PM 30.8386 -78.6419 195° South 449 517 38,000  Climbing Jacksonville Center
05:26PM 30.5914 -78.7033 192° South 441 507 37,900 -60 Descending Miami Center
05:27PM 30.4642 -78.7253 188° South 455 524 37,900  Level Miami Center
05:28PM 30.3408 -78.7469 189° South 467 537 37,900  Level Miami Center
05:29PM 30.2156 -78.7689 189° South 467 537 37,900  Level Miami Center
05:30PM 30.0858 -78.7906 188° South 474 545 37,900  Level Miami Center
05:32PM 29.8225 -78.8383 189° South 464 534 38,000  Climbing Miami Center
05:33PM 29.7033 -78.8650 191° South 464 534 38,000  Level Miami Center
05:34PM 29.5758 -78.8769 185° South 459 528 38,000  Level Miami Center
05:35PM 29.4506 -78.8961 188° South 465 535 38,000  Level Miami Center
05:36PM 29.3211 -78.9103 185° South 465 535 38,000  Level Miami Center
05:37PM 29.1975 -78.9294 188° South 465 535 38,000  Level Miami Center
05:38PM 29.0744 -78.9436 186° South 460 529 38,000  Level Miami Center
05:39PM 28.9428 -78.9578 185° South 460 529 38,000  Level Miami Center
05:40PM 28.8194 -78.9744 187° South 465 535 38,000  Level Miami Center
05:41PM 28.6919 -78.9886 186° South 465 535 38,000  Level Miami Center
05:42PM 28.5706 -79.0100 189° South 459 528 38,000  Level Miami Center
05:43PM 28.4450 -79.0264 187° South 459 528 38,000  Level Miami Center
05:44PM 28.3236 -79.0428 187° South 459 528 38,000  Level Miami Center
05:45PM 28.2042 -79.0806 196° South 448 516 38,000  Level Miami Center
05:46PM 28.0867 -79.1136 194° South 448 516 38,000 -300 Level Miami Center
05:47PM 27.9672 -79.1511 195° South 442 509 37,500 -1,320 Descending Miami Center
05:48PM 27.8642 -79.1844 196° South 442 509 35,500 -2,340 Descending Miami Center
05:49PM 27.7278 -79.2261 195° South 449 517 32,900 -2,400 Descending Miami Center
05:50PM 27.6042 -79.2611 194° South 459 528 30,800 -2,100 Descending Miami Center
05:51PM 27.4803 -79.3006 196° South 464 534 28,700 -2,100 Descending Miami Center
05:52PM 27.3711 -79.3333 195° South 454 522 26,700 -1,860 Descending Miami Center
05:53PM 27.2556 -79.3708 196° South 440 506 25,000 -1,380 Descending Miami Center
05:54PM 27.1297 -79.4078 195° South 429 494 24,000 -540 Descending Miami Center
05:55PM 27.0122 -79.4425 195° South 429 494 24,000  Level Miami Center
05:56PM 26.8925 -79.4794 195° South 441 507 24,000 -720 Level Miami Center
05:57PM 26.7747 -79.5117 194° South 435 501 22,600 -1,740 Descending Miami Center
05:58PM 26.6761 -79.5419 195° South 425 489 20,600 -2,160 Descending Miami Center
05:59PM 26.5367 -79.6200 207° Southwest 389 448 17,800 -2,160 Descending Miami Center
06:00PM 26.5003 -79.6772 235° Southwest 383 441 16,400 -1,440 Descending Miami Center
06:01PM 26.4572 -79.7458 235° Southwest 372 428 15,900 -540 Descending Miami Center
06:01PM 26.4375 -79.7825 239° Southwest 378 435 15,900 -780 Level Miami Center
06:02PM 26.4053 -79.8350 236° Southwest 369 425 15,200 -1,140 Descending Miami Center
06:02PM 26.3792 -79.8783 236° Southwest 378 435 14,800 -900 Descending Miami Center
06:03PM 26.3342 -79.9283 225° Southwest 376 433 14,300 -900 Descending Miami Center
06:03PM 26.3064 -79.9578 224° Southwest 378 435 13,900 -780 Descending Miami Center
06:04PM 26.2594 -80.0075 224° Southwest 366 421 13,500 -840 Descending Miami Center
06:04PM 26.2258 -80.0228 202° Southwest 370 426 13,100 -1,320 Descending Miami Center
06:05PM 26.1731 -80.0397 196° South 352 405 12,300 -1,740 Descending Miami Center
06:05PM 26.1292 -80.0503 192° South 354 407 11,400 -1,680 Descending Miami Center
06:06PM 26.0786 -80.0650 195° South 347 399 10,600 -1,140 Descending Miami Center
06:06PM 26.0386 -80.0733 191° South 349 402 10,300 -600 Descending Miami Center
06:07PM 25.9925 -80.0881 196° South 297 342 10,000 -1,140 Descending Miami Center
06:07PM 25.9628 -80.1036 205° Southwest 326 375 9,200 -1,500 Descending Miami Center
06:08PM 25.9328 -80.1467 232° Southwest 290 334 8,500 -1,320 Descending Miami Center
06:08PM 25.9297 -80.1836 265° West 275 316 7,900 -540 Descending Miami Center
06:09PM 25.9203 -80.2342 258° West 256 295 8,000  Climbing Miami Center
06:09PM 25.9175 -80.2617 264° West 258 297 7,900  Descending Miami Center
06:10PM 25.9081 -80.3075 257° West 249 287 8,000 -900 Climbing Miami Center
06:11PM 25.9147 -80.3772 276° West 214 246 6,500 -1,680 Descending Miami Center
06:12PM 25.9342 -80.4425 288° West 227 261 4,700 -1,800 Descending Miami Center